This is the latest recevied weather packets stored in our database for station/object OK2ZAW-19. If no packets are shown the sender has not sent any weather packets the latest 1 day(s).
| Time | Temp. | Humidity | Pressure | Rain* | Wind** | Luminosity | Snow |
|---|---|---|---|---|---|---|---|
| 1778009130 | 13.89° C | 67% | 1006.1 hPa | - | 0.45 m/s, 315° | 337 W/m² | - |
| 1778008509 | 14.44° C | 66% | 1006 hPa | - | 0.45 m/s, 315° | 337 W/m² | - |
| 1778008198 | 14.44° C | 63% | 1006.1 hPa | - | 0.45 m/s, 315° | 337 W/m² | - |
| 1778007577 | 14.44° C | 63% | 1006 hPa | - | 0.45 m/s, 315° | 337 W/m² | - |
| 1778007266 | 15° C | 62% | 1006.2 hPa | - | 0.45 m/s, 315° | 337 W/m² | - |
| 1778006955 | 15° C | 59% | 1006.1 hPa | - | 0.45 m/s, 315° | 337 W/m² | - |
| 1778006644 | 15° C | 59% | 1006.1 hPa | - | 0.45 m/s, 315° | 337 W/m² | - |
| 1778006333 | 15° C | 58% | 1006.1 hPa | - | 0 m/s | 337 W/m² | - |
| 1778006022 | 15.56° C | 58% | 1006 hPa | - | 0.45 m/s, 315° | 337 W/m² | - |
| 1778005711 | 15.56° C | 56% | 1006.1 hPa | - | 0.45 m/s, 315° | 338 W/m² | - |
| 1778005400 | 15.56° C | 54% | 1006 hPa | - | 0.45 m/s, 315° | 337 W/m² | - |
| 1778005090 | 16.11° C | 52% | 1006.1 hPa | - | 0 m/s | 337 W/m² | - |
| 1778004778 | 16.11° C | 53% | 1006.1 hPa | - | 0.45 m/s, 315° | 337 W/m² | - |
| 1778003845 | 16.67° C | 47% | 1006 hPa | - | 0 m/s | 337 W/m² | - |
| 1778003534 | 16.67° C | 47% | 1006 hPa | - | 0 m/s | 337 W/m² | - |
| 1778002912 | 17.22° C | 43% | 1006 hPa | - | 0 m/s | 337 W/m² | - |
| 1778002601 | 17.22° C | 44% | 1006 hPa | - | 0 m/s | 337 W/m² | - |
| 1778002290 | 17.22° C | 42% | 1006 hPa | - | 0 m/s | 337 W/m² | - |
| 1778001357 | 18.33° C | 40% | 1006 hPa | - | 0 m/s | 337 W/m² | - |
| 1778001045 | 18.33° C | 39% | 1006.1 hPa | - | 0 m/s | 337 W/m² | - |
| 1778000734 | 18.89° C | 38% | 1006.1 hPa | - | 0 m/s | 337 W/m² | - |
| 1778000423 | 19.44° C | 37% | 1006.2 hPa | - | 0 m/s | 337 W/m² | - |
| 1778000112 | 19.44° C | 37% | 1006.2 hPa | - | 0 m/s | 337 W/m² | - |
| 1777999800 | 20° C | 37% | 1006.2 hPa | - | 0 m/s | 337 W/m² | - |
| 1777999489 | 20.56° C | 36% | 1006.3 hPa | - | 0 m/s | 337 W/m² | - |
* Rain since midnight (hover to see other rain measurements)
** Current wind speed in m/s (hover to see current wind gust speed)